Mellieha, Malta
Current Conditions -  °F | °C
As of 8:45 PM on Sunday 23 Nov 2014 (Local Time) from LMML Reporting Station
Few Clouds Few Clouds  
Wind Chill: 61°   Ceiling: Unl
Heat Index: 61°   Visibility: 6mi
Dew Point: 57°   Wind: 6mph
Humidity: 88%   Direction: 150°SSE
Pressure: 30.27"   Gusts: NA
Location:  35.96°N, 14.36°E
Report Text: LMML 231845Z 15005KT 9999 FEW018 16/14 Q1025 NOSIG
Loading
Personal Weather Stations






























Interactive Weather Map New forecast layout! Learn more

10-Day Weather Forecast

Advertisements
Track Severe Weather on mobile